createdAt,value
2023-03-21T00:00:48.778Z,23.20
2023-03-21T00:03:16.369Z,23.10
2023-03-21T00:05:52.080Z,23.10
2023-03-21T00:08:21.286Z,23.10
2023-03-21T00:10:48.482Z,23.10
2023-03-21T00:13:16.297Z,23.10
2023-03-21T00:16:16.695Z,23.10
2023-03-21T00:18:53.999Z,23.10
2023-03-21T00:24:15.236Z,23.10
2023-03-21T00:26:42.384Z,23.10
2023-03-21T00:29:09.386Z,23.10
2023-03-21T00:31:36.450Z,23.10
2023-03-21T00:34:03.429Z,23.10
2023-03-21T00:36:31.405Z,23.10
2023-03-21T00:39:00.885Z,23.10
2023-03-21T00:41:41.382Z,23.00
2023-03-21T00:44:09.417Z,23.10
2023-03-21T00:46:45.511Z,23.00
2023-03-21T00:49:20.928Z,23.00
2023-03-21T00:51:51.388Z,23.00
2023-03-21T00:54:18.881Z,23.00
2023-03-21T00:56:45.904Z,23.00
2023-03-21T00:59:12.951Z,23.10
2023-03-21T01:01:40.074Z,23.00
2023-03-21T01:04:10.995Z,23.00
2023-03-21T01:06:39.570Z,23.00
2023-03-21T01:09:14.928Z,23.00
2023-03-21T01:11:42.331Z,23.00
2023-03-21T01:14:22.123Z,23.00
2023-03-21T01:16:53.497Z,23.00
2023-03-21T01:19:41.041Z,23.00
2023-03-21T01:22:15.705Z,23.00
2023-03-21T01:24:52.410Z,23.00
2023-03-21T01:27:22.407Z,23.00
2023-03-21T01:29:49.343Z,23.00
2023-03-21T01:32:16.810Z,23.00
2023-03-21T01:34:43.944Z,23.00
2023-03-21T01:37:11.178Z,23.00
2023-03-21T01:39:38.206Z,22.90
2023-03-21T01:42:06.086Z,23.00
2023-03-21T01:44:51.803Z,22.90
2023-03-21T01:47:18.702Z,22.90
2023-03-21T01:49:52.929Z,22.90
2023-03-21T01:52:49.997Z,22.90
2023-03-21T01:55:19.039Z,23.00
2023-03-21T01:58:05.483Z,22.90
2023-03-21T02:00:34.375Z,22.90
2023-03-21T02:03:21.056Z,22.90
2023-03-21T02:06:01.664Z,22.90
2023-03-21T02:08:39.619Z,23.00
2023-03-21T02:11:10.270Z,22.90
2023-03-21T02:13:37.677Z,22.90
2023-03-21T02:16:28.490Z,22.90
2023-03-21T02:19:33.073Z,22.90
2023-03-21T02:22:45.942Z,22.90
2023-03-21T02:25:37.496Z,22.90
2023-03-21T02:28:32.837Z,22.90
2023-03-21T02:31:21.233Z,22.90
2023-03-21T02:34:09.405Z,22.90
2023-03-21T02:37:03.507Z,22.80
2023-03-21T02:39:33.449Z,22.90
2023-03-21T02:42:15.796Z,22.80
2023-03-21T02:45:10.822Z,22.80
2023-03-21T02:47:48.301Z,22.80
2023-03-21T02:50:39.957Z,22.80
2023-03-21T02:53:11.783Z,22.80
2023-03-21T02:55:43.157Z,22.80
2023-03-21T02:58:14.702Z,22.80
2023-03-21T03:00:44.105Z,22.80
2023-03-21T03:03:24.821Z,22.80
2023-03-21T03:06:01.139Z,22.80
2023-03-21T03:08:56.083Z,22.80
2023-03-21T03:11:43.345Z,22.80
2023-03-21T03:15:03.183Z,22.80
2023-03-21T03:17:43.500Z,22.80
2023-03-21T03:20:28.538Z,22.80
2023-03-21T03:24:14.125Z,22.80
2023-03-21T03:26:57.909Z,22.80
2023-03-21T03:29:28.658Z,22.80
2023-03-21T03:32:08.690Z,22.80
2023-03-21T03:34:44.016Z,22.80
2023-03-21T03:37:18.202Z,22.80
2023-03-21T03:39:57.231Z,22.70
2023-03-21T03:42:36.101Z,22.70
2023-03-21T03:45:06.599Z,22.70
2023-03-21T03:47:56.071Z,22.70
2023-03-21T03:50:33.788Z,22.70
2023-03-21T03:53:24.810Z,22.70
2023-03-21T03:55:55.901Z,22.70
2023-03-21T03:58:36.169Z,22.70
2023-03-21T04:01:03.362Z,22.70
2023-03-21T04:03:46.089Z,22.70
2023-03-21T04:06:16.856Z,22.70
2023-03-21T04:08:44.853Z,22.70
2023-03-21T04:11:16.280Z,22.70
2023-03-21T04:13:43.384Z,22.70
2023-03-21T04:16:12.929Z,22.70
2023-03-21T04:18:41.119Z,22.70
2023-03-21T04:21:13.179Z,22.70
2023-03-21T04:23:41.550Z,22.70
2023-03-21T04:26:09.376Z,22.70
2023-03-21T04:28:37.276Z,22.70
2023-03-21T04:31:22.663Z,22.70
2023-03-21T04:33:51.829Z,22.70
2023-03-21T04:36:27.302Z,22.70
2023-03-21T04:38:57.214Z,22.70
2023-03-21T04:41:24.246Z,22.60
2023-03-21T04:43:52.607Z,22.70
2023-03-21T04:46:19.693Z,22.60
2023-03-21T04:48:47.203Z,22.70
2023-03-21T04:51:14.084Z,22.60
2023-03-21T04:53:45.266Z,22.60
2023-03-21T04:56:12.951Z,22.60
2023-03-21T04:58:40.713Z,22.60
2023-03-21T05:01:08.806Z,22.60
2023-03-21T05:03:40.037Z,22.60
2023-03-21T05:06:10.714Z,22.60
2023-03-21T05:08:37.668Z,22.70
2023-03-21T05:11:05.631Z,22.60
2023-03-21T05:13:32.506Z,22.70
2023-03-21T05:15:59.424Z,22.60
2023-03-21T05:18:26.525Z,22.60
2023-03-21T05:20:54.426Z,22.60
2023-03-21T05:23:23.827Z,22.60
2023-03-21T05:25:51.269Z,22.60
2023-03-21T05:28:18.252Z,22.60
2023-03-21T05:30:46.565Z,22.60
2023-03-21T05:33:13.989Z,22.60
2023-03-21T05:35:41.173Z,22.60
2023-03-21T05:38:08.267Z,22.60
2023-03-21T05:40:35.232Z,22.60
2023-03-21T05:43:02.296Z,22.60
2023-03-21T05:45:29.236Z,22.60
2023-03-21T05:47:56.306Z,22.60
2023-03-21T05:50:23.373Z,22.60
2023-03-21T05:52:50.414Z,22.60
2023-03-21T05:55:18.206Z,22.50
2023-03-21T05:57:45.249Z,22.60
2023-03-21T06:00:13.029Z,22.60
2023-03-21T06:02:40.534Z,22.60
2023-03-21T06:05:08.184Z,22.50
2023-03-21T06:07:35.583Z,22.60
2023-03-21T06:10:04.150Z,22.60
2023-03-21T06:12:30.979Z,22.60
2023-03-21T06:14:57.960Z,22.50
2023-03-21T06:17:25.048Z,22.50
2023-03-21T06:19:52.407Z,22.60
2023-03-21T06:22:19.442Z,22.60
2023-03-21T06:24:46.416Z,22.50
2023-03-21T06:27:13.360Z,22.50
2023-03-21T06:29:40.340Z,22.50
2023-03-21T06:32:07.722Z,22.60
2023-03-21T06:34:34.816Z,22.50
2023-03-21T06:37:02.022Z,22.50
2023-03-21T06:39:28.935Z,22.60
2023-03-21T06:41:55.832Z,22.60
2023-03-21T06:44:22.994Z,22.60
2023-03-21T06:46:51.002Z,22.60
2023-03-21T06:49:18.608Z,22.70
2023-03-21T06:51:45.586Z,22.80
2023-03-21T06:54:14.749Z,22.90
2023-03-21T06:56:41.833Z,23.00
2023-03-21T06:59:08.946Z,23.10
2023-03-21T07:01:36.361Z,23.20
2023-03-21T07:04:04.700Z,23.30
2023-03-21T07:06:32.171Z,23.40
2023-03-21T07:09:00.558Z,23.60
2023-03-21T07:11:27.665Z,23.70
2023-03-21T07:13:54.906Z,23.80
2023-03-21T07:16:21.915Z,24.00
2023-03-21T07:18:49.062Z,24.10
2023-03-21T07:21:16.015Z,24.20
2023-03-21T07:23:43.847Z,24.20
2023-03-21T07:26:10.969Z,24.40
2023-03-21T07:28:38.053Z,24.40
2023-03-21T07:31:07.194Z,24.60
2023-03-21T07:33:34.895Z,24.70
2023-03-21T07:36:02.929Z,24.70
2023-03-21T07:38:31.158Z,24.90
2023-03-21T07:41:00.779Z,25.00
2023-03-21T07:43:27.771Z,25.00
2023-03-21T07:46:00.150Z,25.10
2023-03-21T07:48:28.363Z,25.20
2023-03-21T07:50:55.582Z,25.20
2023-03-21T07:53:25.097Z,25.20
2023-03-21T07:55:55.808Z,25.20
2023-03-21T07:58:26.613Z,25.30
2023-03-21T08:00:55.644Z,25.40
2023-03-21T08:03:24.170Z,25.40
2023-03-21T08:05:54.629Z,25.50
2023-03-21T08:08:21.730Z,25.50
2023-03-21T08:10:49.398Z,25.60
2023-03-21T08:13:16.434Z,25.60
2023-03-21T08:15:43.706Z,25.60
2023-03-21T08:18:11.510Z,25.60
2023-03-21T08:20:38.687Z,25.60
2023-03-21T08:23:05.771Z,25.70
2023-03-21T08:25:33.200Z,25.60
2023-03-21T08:28:00.171Z,25.60
2023-03-21T08:30:29.232Z,25.60
2023-03-21T08:33:01.056Z,25.60
2023-03-21T08:35:29.532Z,25.60
2023-03-21T08:37:56.685Z,25.60
2023-03-21T08:40:24.150Z,25.60
2023-03-21T08:42:52.864Z,25.60
2023-03-21T08:45:20.700Z,25.60
2023-03-21T08:47:50.845Z,25.60
2023-03-21T08:50:22.077Z,25.60
2023-03-21T08:52:52.717Z,25.70
2023-03-21T08:55:20.091Z,25.60
2023-03-21T08:57:47.262Z,25.70
2023-03-21T09:00:18.044Z,25.70
2023-03-21T09:02:47.083Z,25.70
2023-03-21T09:05:14.645Z,25.70
2023-03-21T09:07:42.896Z,25.80
2023-03-21T09:10:20.592Z,25.70
2023-03-21T09:12:56.211Z,25.80
2023-03-21T09:15:27.872Z,25.80
2023-03-21T09:17:58.761Z,25.80
2023-03-21T09:20:31.041Z,25.80
2023-03-21T09:22:59.922Z,25.80
2023-03-21T09:25:31.415Z,25.90
2023-03-21T09:28:00.527Z,25.90
2023-03-21T09:30:28.799Z,25.90
2023-03-21T09:32:56.156Z,25.90
2023-03-21T09:35:24.832Z,25.90
2023-03-21T09:37:51.974Z,25.90
2023-03-21T09:40:31.347Z,25.90
2023-03-21T09:43:38.224Z,26.00
2023-03-21T09:46:24.779Z,26.00
2023-03-21T09:49:15.974Z,26.00
2023-03-21T09:51:49.022Z,25.90
2023-03-21T09:54:22.638Z,25.90
2023-03-21T09:56:55.936Z,25.90
2023-03-21T09:59:40.408Z,26.00
2023-03-21T10:02:47.234Z,26.00
2023-03-21T10:05:31.296Z,26.00
2023-03-21T10:08:24.440Z,26.00
2023-03-21T10:11:05.929Z,26.00
2023-03-21T10:13:47.129Z,26.00
2023-03-21T10:16:41.098Z,26.00
2023-03-21T10:19:18.423Z,26.00
2023-03-21T10:22:00.661Z,26.00
2023-03-21T10:24:33.332Z,26.00
2023-03-21T10:27:02.777Z,26.00
2023-03-21T10:29:43.751Z,25.90
2023-03-21T10:32:17.441Z,25.90
2023-03-21T10:37:25.036Z,25.90
2023-03-21T10:39:55.250Z,25.80
2023-03-21T10:42:25.024Z,25.70
2023-03-21T10:44:56.605Z,25.60
2023-03-21T10:47:36.009Z,25.40
2023-03-21T10:50:13.601Z,25.40
2023-03-21T10:52:51.446Z,25.30
2023-03-21T10:55:31.237Z,25.30
2023-03-21T10:58:11.019Z,25.20
2023-03-21T11:00:46.107Z,25.20
2023-03-21T11:03:38.864Z,25.20
2023-03-21T11:06:36.702Z,25.30
2023-03-21T11:09:21.881Z,25.30
2023-03-21T11:12:13.336Z,25.30
2023-03-21T11:14:47.576Z,25.40
2023-03-21T11:17:17.624Z,25.40
2023-03-21T11:20:05.493Z,25.40
2023-03-21T11:22:44.181Z,25.50
2023-03-21T11:25:27.336Z,25.50
2023-03-21T11:27:56.250Z,25.10
2023-03-21T11:30:27.667Z,25.60
2023-03-21T11:32:58.353Z,25.60
2023-03-21T11:35:33.909Z,25.60
2023-03-21T11:38:01.273Z,25.60
2023-03-21T11:40:32.334Z,25.70
2023-03-21T11:43:01.611Z,25.70
2023-03-21T11:45:29.930Z,25.70
2023-03-21T11:48:00.978Z,25.80
2023-03-21T11:50:50.246Z,25.80
2023-03-21T11:53:41.679Z,25.90
2023-03-21T11:56:34.950Z,25.90
2023-03-21T11:59:21.554Z,25.90
2023-03-21T12:02:13.272Z,26.00
2023-03-21T12:04:46.673Z,26.00
2023-03-21T12:07:26.562Z,25.90
2023-03-21T12:10:30.012Z,25.90
2023-03-21T12:13:33.221Z,25.20
2023-03-21T12:16:28.461Z,25.90
2023-03-21T12:19:27.247Z,25.80
2023-03-21T12:22:33.354Z,25.80
2023-03-21T12:25:24.985Z,25.60
2023-03-21T12:28:32.158Z,25.60
2023-03-21T12:31:37.515Z,25.60
2023-03-21T12:34:28.212Z,25.50
2023-03-21T12:37:38.779Z,25.50
2023-03-21T12:40:58.537Z,25.40
2023-03-21T12:43:46.938Z,25.30
2023-03-21T12:46:43.314Z,25.30
2023-03-21T12:49:33.149Z,25.30
2023-03-21T12:52:28.082Z,25.30
2023-03-21T12:55:16.554Z,25.30
2023-03-21T12:58:06.245Z,25.30
2023-03-21T13:00:51.357Z,25.30
2023-03-21T13:03:43.932Z,25.30
2023-03-21T13:06:19.332Z,25.30
2023-03-21T13:09:00.124Z,24.30
2023-03-21T13:11:31.152Z,25.40
2023-03-21T13:14:11.759Z,25.40
2023-03-21T13:16:51.502Z,25.40
2023-03-21T13:19:31.263Z,25.40
2023-03-21T13:22:13.918Z,25.40
2023-03-21T13:24:59.939Z,25.40
2023-03-21T13:27:35.731Z,25.50
2023-03-21T13:30:32.988Z,25.50
2023-03-21T13:33:11.726Z,25.50
2023-03-21T13:35:43.429Z,25.50
2023-03-21T13:38:22.743Z,25.50
2023-03-21T13:41:07.129Z,25.50
2023-03-21T13:43:52.047Z,25.50
2023-03-21T13:46:25.151Z,25.60
2023-03-21T13:49:10.973Z,25.60
2023-03-21T13:51:51.607Z,25.70
2023-03-21T13:54:29.946Z,25.70
2023-03-21T13:57:01.526Z,25.70
2023-03-21T13:59:46.257Z,25.80
2023-03-21T14:02:23.663Z,25.80
2023-03-21T14:05:17.545Z,25.80
2023-03-21T14:07:49.881Z,25.80
2023-03-21T14:10:22.241Z,25.90
2023-03-21T14:12:49.942Z,25.80
2023-03-21T14:15:40.897Z,25.80
2023-03-21T14:18:28.196Z,25.90
2023-03-21T14:21:27.138Z,25.90
2023-03-21T14:24:07.555Z,25.90
2023-03-21T14:26:45.592Z,25.80
2023-03-21T14:29:33.363Z,25.90
2023-03-21T14:32:02.643Z,26.00
2023-03-21T14:34:35.094Z,26.00
2023-03-21T14:37:02.204Z,26.10
2023-03-21T14:39:33.322Z,26.20
2023-03-21T14:42:15.810Z,26.30
2023-03-21T14:44:57.312Z,26.40
2023-03-21T14:47:30.146Z,26.50
2023-03-21T14:50:00.922Z,26.50
2023-03-21T14:52:34.550Z,26.50
2023-03-21T14:55:11.946Z,26.50
2023-03-21T14:57:39.348Z,26.60
2023-03-21T15:00:21.032Z,26.60
2023-03-21T15:02:48.820Z,26.60
2023-03-21T15:05:37.819Z,26.60
2023-03-21T15:08:16.410Z,26.60
2023-03-21T15:11:06.342Z,26.60
2023-03-21T15:13:55.057Z,26.70
2023-03-21T15:16:23.409Z,26.70
2023-03-21T15:18:52.070Z,26.80
2023-03-21T15:21:32.069Z,26.90
2023-03-21T15:24:41.382Z,26.90
2023-03-21T15:27:18.859Z,27.10
2023-03-21T15:29:49.475Z,27.20
2023-03-21T15:32:23.298Z,27.30
2023-03-21T15:34:54.035Z,27.30
2023-03-21T15:37:28.998Z,27.30
2023-03-21T15:40:20.674Z,27.30
2023-03-21T15:42:47.721Z,27.30
2023-03-21T15:45:24.650Z,27.30
2023-03-21T15:48:06.500Z,27.30
2023-03-21T15:50:55.644Z,27.30
2023-03-21T15:53:24.138Z,27.30
2023-03-21T15:56:04.137Z,27.30
2023-03-21T15:58:43.394Z,27.30
2023-03-21T16:01:20.052Z,27.20
2023-03-21T16:03:56.463Z,27.20
2023-03-21T16:06:31.217Z,27.20
2023-03-21T16:09:23.446Z,27.20
2023-03-21T16:11:58.998Z,27.20
2023-03-21T16:14:30.510Z,27.20
2023-03-21T16:16:59.160Z,27.10
2023-03-21T16:19:28.779Z,27.10
2023-03-21T16:21:55.850Z,27.00
2023-03-21T16:24:22.714Z,27.00
2023-03-21T16:26:52.175Z,26.90
2023-03-21T16:29:19.760Z,26.90
2023-03-21T16:31:48.477Z,26.90
2023-03-21T16:34:15.679Z,26.80
2023-03-21T16:36:44.034Z,26.80
2023-03-21T16:39:21.488Z,26.70
2023-03-21T16:41:50.628Z,26.70
2023-03-21T16:44:18.900Z,26.60
2023-03-21T16:46:47.305Z,26.60
2023-03-21T16:49:25.704Z,26.60
2023-03-21T16:51:56.084Z,26.60
2023-03-21T16:54:23.471Z,26.50
2023-03-21T16:56:53.843Z,26.40
2023-03-21T16:59:21.160Z,26.40
2023-03-21T17:01:49.210Z,26.30
2023-03-21T17:04:18.441Z,26.30
2023-03-21T17:06:54.108Z,26.20
2023-03-21T17:09:27.314Z,26.20
2023-03-21T17:11:54.814Z,26.10
2023-03-21T17:14:22.283Z,26.10
2023-03-21T17:16:49.429Z,26.00
2023-03-21T17:19:26.507Z,26.00
2023-03-21T17:21:53.751Z,26.00
2023-03-21T17:24:20.818Z,25.90
2023-03-21T17:26:48.203Z,25.80
2023-03-21T17:29:15.751Z,25.80
2023-03-21T17:31:48.352Z,25.80
2023-03-21T17:34:16.507Z,25.70
2023-03-21T17:36:47.469Z,25.70
2023-03-21T17:39:25.811Z,25.60
2023-03-21T17:41:53.692Z,25.50
2023-03-21T17:44:21.205Z,25.40
2023-03-21T17:46:51.577Z,25.40
2023-03-21T17:49:19.921Z,25.40
2023-03-21T17:51:47.114Z,25.50
2023-03-21T17:54:14.533Z,25.40
2023-03-21T17:56:42.123Z,25.40
2023-03-21T17:59:14.030Z,25.40
2023-03-21T18:01:41.960Z,25.40
2023-03-21T18:04:09.113Z,25.40
2023-03-21T18:06:40.509Z,25.30
2023-03-21T18:09:11.950Z,25.30
2023-03-21T18:11:40.288Z,25.20
2023-03-21T18:14:17.176Z,25.20
2023-03-21T18:16:46.080Z,25.10
2023-03-21T18:19:15.617Z,25.20
2023-03-21T18:21:45.529Z,25.10
2023-03-21T18:24:17.686Z,25.10
2023-03-21T18:26:45.980Z,25.10
2023-03-21T18:30:19.784Z,25.00
2023-03-21T18:32:08.568Z,25.00
2023-03-21T18:34:40.338Z,25.00
2023-03-21T18:37:10.942Z,24.90
2023-03-21T18:39:39.916Z,24.90
2023-03-21T18:42:07.683Z,24.90
2023-03-21T18:44:45.993Z,25.20
2023-03-21T18:47:16.796Z,24.90
2023-03-21T18:50:13.694Z,24.80
2023-03-21T18:52:37.616Z,24.80
2023-03-21T18:55:09.082Z,24.80
2023-03-21T18:57:38.508Z,24.80
2023-03-21T19:00:13.190Z,24.70
2023-03-21T19:03:17.187Z,24.70
2023-03-21T19:05:48.986Z,24.70
2023-03-21T19:08:16.845Z,24.70
2023-03-21T19:10:45.521Z,24.50
2023-03-21T19:13:12.891Z,24.60
2023-03-21T19:15:41.374Z,24.60
2023-03-21T19:21:01.711Z,24.50
2023-03-21T19:23:40.800Z,24.50
2023-03-21T19:26:16.468Z,24.50
2023-03-21T19:28:44.349Z,24.50
2023-03-21T19:31:15.013Z,24.50
2023-03-21T19:33:42.805Z,24.50
2023-03-21T19:36:21.192Z,24.50
2023-03-21T19:38:49.863Z,24.40
2023-03-21T19:41:18.840Z,24.40
2023-03-21T19:43:54.623Z,24.40
2023-03-21T19:46:25.638Z,24.40
2023-03-21T19:48:56.722Z,24.00
2023-03-21T19:51:30.836Z,24.30
2023-03-21T19:54:01.489Z,24.40
2023-03-21T19:56:31.639Z,24.30
2023-03-21T19:59:01.581Z,24.30
2023-03-21T20:01:32.663Z,24.30
2023-03-21T20:04:01.140Z,24.30
2023-03-21T20:06:31.572Z,24.30
2023-03-21T20:11:50.258Z,24.20
2023-03-21T20:14:21.392Z,24.30
2023-03-21T20:16:48.626Z,24.20
2023-03-21T20:19:16.190Z,24.20
2023-03-21T20:21:50.871Z,24.20
2023-03-21T20:24:20.710Z,24.20
2023-03-21T20:26:49.291Z,24.20
2023-03-21T20:30:07.083Z,24.20
2023-03-21T20:32:04.854Z,24.20
2023-03-21T20:34:32.040Z,24.20
2023-03-21T20:36:59.445Z,24.10
2023-03-21T20:39:29.428Z,24.10
2023-03-21T20:41:59.705Z,24.10
2023-03-21T20:44:48.494Z,24.10
2023-03-21T20:47:15.847Z,24.10
2023-03-21T20:49:43.127Z,24.10
2023-03-21T20:55:00.233Z,24.00
2023-03-21T20:57:27.446Z,24.00
2023-03-21T20:59:55.567Z,24.00
2023-03-21T21:02:24.088Z,24.00
2023-03-21T21:05:21.885Z,24.00
2023-03-21T21:07:42.737Z,24.00
2023-03-21T21:10:16.300Z,24.00
2023-03-21T21:12:47.001Z,24.00
2023-03-21T21:15:18.466Z,24.00
2023-03-21T21:20:33.723Z,23.90
2023-03-21T21:23:01.078Z,23.90
2023-03-21T21:25:31.840Z,23.90
2023-03-21T21:27:58.965Z,23.90
2023-03-21T21:30:26.187Z,23.90
2023-03-21T21:32:54.036Z,23.90
2023-03-21T21:35:22.383Z,23.90
2023-03-21T21:37:51.102Z,23.80
2023-03-21T21:40:20.651Z,23.80
2023-03-21T21:42:47.826Z,23.80
2023-03-21T21:45:15.779Z,23.80
2023-03-21T21:47:45.327Z,23.80
2023-03-21T21:50:13.485Z,23.80
2023-03-21T21:52:43.743Z,23.80
2023-03-21T21:55:13.218Z,23.80
2023-03-21T21:57:41.127Z,24.00
2023-03-21T22:00:13.713Z,23.70
2023-03-21T22:02:41.573Z,23.80
2023-03-21T22:05:09.531Z,23.70
2023-03-21T22:07:38.041Z,23.70
2023-03-21T22:10:06.808Z,23.70
2023-03-21T22:12:34.097Z,23.70
2023-03-21T22:15:01.091Z,23.70
2023-03-21T22:17:28.038Z,23.70
2023-03-21T22:20:05.152Z,23.70
2023-03-21T22:22:37.074Z,23.70
2023-03-21T22:25:11.540Z,23.70
2023-03-21T22:27:38.709Z,23.70
2023-03-21T22:30:09.316Z,23.70
2023-03-21T22:32:38.484Z,23.70
2023-03-21T22:35:07.043Z,23.70
2023-03-21T22:37:37.768Z,23.60
2023-03-21T22:40:10.685Z,23.70
2023-03-21T22:42:38.158Z,23.60
2023-03-21T22:45:06.871Z,23.70
2023-03-21T22:47:34.408Z,23.60
2023-03-21T22:50:02.294Z,23.60
2023-03-21T22:52:29.464Z,23.60
2023-03-21T22:54:56.417Z,23.40
2023-03-21T22:57:23.534Z,23.60
2023-03-21T22:59:50.724Z,23.60
2023-03-21T23:02:18.084Z,23.60
2023-03-21T23:04:45.090Z,23.60
2023-03-21T23:07:12.365Z,23.60
2023-03-21T23:09:42.277Z,23.60
2023-03-21T23:12:09.565Z,23.60
2023-03-21T23:14:36.822Z,23.60
2023-03-21T23:17:04.182Z,23.60
2023-03-21T23:19:34.262Z,23.60
2023-03-21T23:22:01.296Z,23.50
2023-03-21T23:24:28.983Z,23.60
2023-03-21T23:26:56.094Z,23.50
2023-03-21T23:29:22.921Z,23.50
2023-03-21T23:31:50.062Z,23.60
2023-03-21T23:34:17.032Z,23.50
2023-03-21T23:36:44.021Z,23.50
2023-03-21T23:39:11.181Z,23.50
2023-03-21T23:41:38.317Z,23.50
2023-03-21T23:44:06.040Z,23.50
2023-03-21T23:46:33.186Z,23.50
2023-03-21T23:49:00.227Z,23.50
2023-03-21T23:51:27.434Z,23.40
2023-03-21T23:53:56.498Z,23.50
2023-03-21T23:56:27.303Z,23.50
2023-03-21T23:58:54.355Z,23.40
